sensor_id;sensor_type;location;lat;lon;timestamp;temperature;humidity
24146;DHT22;12308;50.948;4.706;2023-09-08T00:00:57;20.80;99.90
24146;DHT22;12308;50.948;4.706;2023-09-08T00:03:23;20.80;99.90
24146;DHT22;12308;50.948;4.706;2023-09-08T00:05:48;20.70;99.90
24146;DHT22;12308;50.948;4.706;2023-09-08T00:08:14;20.80;99.90
24146;DHT22;12308;50.948;4.706;2023-09-08T00:10:40;20.70;99.90
24146;DHT22;12308;50.948;4.706;2023-09-08T00:13:06;20.50;99.90
24146;DHT22;12308;50.948;4.706;2023-09-08T00:15:33;20.50;99.90
24146;DHT22;12308;50.948;4.706;2023-09-08T00:18:00;20.50;99.90
24146;DHT22;12308;50.948;4.706;2023-09-08T00:20:26;20.50;99.90
24146;DHT22;12308;50.948;4.706;2023-09-08T00:22:52;20.40;99.90
24146;DHT22;12308;50.948;4.706;2023-09-08T00:25:18;20.40;99.90
24146;DHT22;12308;50.948;4.706;2023-09-08T00:27:44;20.40;99.90
24146;DHT22;12308;50.948;4.706;2023-09-08T00:30:10;20.40;99.90
24146;DHT22;12308;50.948;4.706;2023-09-08T00:32:36;20.50;99.90
24146;DHT22;12308;50.948;4.706;2023-09-08T00:35:01;20.50;99.90
24146;DHT22;12308;50.948;4.706;2023-09-08T00:37:27;20.50;99.90
24146;DHT22;12308;50.948;4.706;2023-09-08T00:39:53;20.50;99.90
24146;DHT22;12308;50.948;4.706;2023-09-08T00:42:18;20.40;99.90
24146;DHT22;12308;50.948;4.706;2023-09-08T00:44:44;20.50;99.90
24146;DHT22;12308;50.948;4.706;2023-09-08T00:47:10;20.40;99.90
24146;DHT22;12308;50.948;4.706;2023-09-08T00:49:35;20.30;99.90
24146;DHT22;12308;50.948;4.706;2023-09-08T00:52:01;20.40;99.90
24146;DHT22;12308;50.948;4.706;2023-09-08T00:54:27;20.30;99.90
24146;DHT22;12308;50.948;4.706;2023-09-08T00:56:55;20.20;99.90
24146;DHT22;12308;50.948;4.706;2023-09-08T00:59:22;20.30;99.90
24146;DHT22;12308;50.948;4.706;2023-09-08T01:01:48;20.20;99.90
24146;DHT22;12308;50.948;4.706;2023-09-08T01:04:14;20.20;99.90
24146;DHT22;12308;50.948;4.706;2023-09-08T01:06:40;20.20;99.90
24146;DHT22;12308;50.948;4.706;2023-09-08T01:09:06;20.20;99.90
24146;DHT22;12308;50.948;4.706;2023-09-08T01:11:32;20.20;99.90
24146;DHT22;12308;50.948;4.706;2023-09-08T01:13:57;20.10;99.90
24146;DHT22;12308;50.948;4.706;2023-09-08T01:16:23;20.10;99.90
24146;DHT22;12308;50.948;4.706;2023-09-08T01:18:49;20.10;99.90
24146;DHT22;12308;50.948;4.706;2023-09-08T01:24:28;20.10;99.90
24146;DHT22;12308;50.948;4.706;2023-09-08T01:26:58;20.00;99.90
24146;DHT22;12308;50.948;4.706;2023-09-08T01:29:25;19.90;99.90
24146;DHT22;12308;50.948;4.706;2023-09-08T01:31:52;19.90;99.90
24146;DHT22;12308;50.948;4.706;2023-09-08T01:34:18;19.80;99.90
24146;DHT22;12308;50.948;4.706;2023-09-08T01:36:45;19.80;99.90
24146;DHT22;12308;50.948;4.706;2023-09-08T01:39:11;19.80;99.90
24146;DHT22;12308;50.948;4.706;2023-09-08T01:41:37;19.80;99.90
24146;DHT22;12308;50.948;4.706;2023-09-08T01:44:02;19.90;99.90
24146;DHT22;12308;50.948;4.706;2023-09-08T01:46:34;19.70;99.90
24146;DHT22;12308;50.948;4.706;2023-09-08T01:48:59;19.70;99.90
24146;DHT22;12308;50.948;4.706;2023-09-08T01:51:25;19.80;99.90
24146;DHT22;12308;50.948;4.706;2023-09-08T01:53:51;19.70;99.90
24146;DHT22;12308;50.948;4.706;2023-09-08T01:56:16;19.60;99.90
24146;DHT22;12308;50.948;4.706;2023-09-08T01:58:42;19.60;99.90
24146;DHT22;12308;50.948;4.706;2023-09-08T02:01:08;19.60;99.90
24146;DHT22;12308;50.948;4.706;2023-09-08T02:03:34;19.40;99.90
24146;DHT22;12308;50.948;4.706;2023-09-08T02:06:00;19.40;99.90
24146;DHT22;12308;50.948;4.706;2023-09-08T02:08:25;19.30;99.90
24146;DHT22;12308;50.948;4.706;2023-09-08T02:10:51;19.30;99.90
24146;DHT22;12308;50.948;4.706;2023-09-08T02:13:17;19.30;99.90
24146;DHT22;12308;50.948;4.706;2023-09-08T02:15:42;19.30;99.90
24146;DHT22;12308;50.948;4.706;2023-09-08T02:18:08;19.30;99.90
24146;DHT22;12308;50.948;4.706;2023-09-08T02:20:34;19.40;99.90
24146;DHT22;12308;50.948;4.706;2023-09-08T02:23:05;19.30;99.90
24146;DHT22;12308;50.948;4.706;2023-09-08T02:25:31;19.30;99.90
24146;DHT22;12308;50.948;4.706;2023-09-08T02:27:56;19.30;99.90
24146;DHT22;12308;50.948;4.706;2023-09-08T02:30:22;19.40;99.90
24146;DHT22;12308;50.948;4.706;2023-09-08T02:32:48;19.40;99.90
24146;DHT22;12308;50.948;4.706;2023-09-08T02:35:14;19.40;99.90
24146;DHT22;12308;50.948;4.706;2023-09-08T02:37:40;19.30;99.90
24146;DHT22;12308;50.948;4.706;2023-09-08T02:40:06;19.40;99.90
24146;DHT22;12308;50.948;4.706;2023-09-08T02:42:32;19.40;99.90
24146;DHT22;12308;50.948;4.706;2023-09-08T02:44:58;19.50;99.90
24146;DHT22;12308;50.948;4.706;2023-09-08T02:47:23;19.40;99.90
24146;DHT22;12308;50.948;4.706;2023-09-08T02:49:49;19.50;99.90
24146;DHT22;12308;50.948;4.706;2023-09-08T02:52:15;19.40;99.90
24146;DHT22;12308;50.948;4.706;2023-09-08T02:54:40;19.30;99.90
24146;DHT22;12308;50.948;4.706;2023-09-08T02:57:06;19.10;99.90
24146;DHT22;12308;50.948;4.706;2023-09-08T02:59:32;19.10;99.90
24146;DHT22;12308;50.948;4.706;2023-09-08T03:01:59;19.00;99.90
24146;DHT22;12308;50.948;4.706;2023-09-08T03:04:25;19.00;99.90
24146;DHT22;12308;50.948;4.706;2023-09-08T03:06:51;19.10;99.90
24146;DHT22;12308;50.948;4.706;2023-09-08T03:09:16;19.10;99.90
24146;DHT22;12308;50.948;4.706;2023-09-08T03:11:43;19.10;99.90
24146;DHT22;12308;50.948;4.706;2023-09-08T03:14:09;19.10;99.90
24146;DHT22;12308;50.948;4.706;2023-09-08T03:16:34;19.00;99.90
24146;DHT22;12308;50.948;4.706;2023-09-08T03:19:00;18.90;99.90
24146;DHT22;12308;50.948;4.706;2023-09-08T03:21:26;18.90;99.90
24146;DHT22;12308;50.948;4.706;2023-09-08T03:23:51;18.90;99.90
24146;DHT22;12308;50.948;4.706;2023-09-08T03:26:17;19.00;99.90
24146;DHT22;12308;50.948;4.706;2023-09-08T03:28:43;19.00;99.90
24146;DHT22;12308;50.948;4.706;2023-09-08T03:31:08;19.00;99.90
24146;DHT22;12308;50.948;4.706;2023-09-08T03:33:34;19.00;99.90
24146;DHT22;12308;50.948;4.706;2023-09-08T03:36:00;19.00;99.90
24146;DHT22;12308;50.948;4.706;2023-09-08T03:38:26;19.00;99.90
24146;DHT22;12308;50.948;4.706;2023-09-08T03:40:52;18.80;99.90
24146;DHT22;12308;50.948;4.706;2023-09-08T03:43:18;18.80;99.90
24146;DHT22;12308;50.948;4.706;2023-09-08T03:45:44;18.80;99.90
24146;DHT22;12308;50.948;4.706;2023-09-08T03:48:10;18.70;99.90
24146;DHT22;12308;50.948;4.706;2023-09-08T03:50:35;18.90;99.90
24146;DHT22;12308;50.948;4.706;2023-09-08T03:53:01;18.80;99.90
24146;DHT22;12308;50.948;4.706;2023-09-08T03:55:27;18.80;99.90
24146;DHT22;12308;50.948;4.706;2023-09-08T03:57:52;18.70;99.90
24146;DHT22;12308;50.948;4.706;2023-09-08T04:00:19;18.70;99.90
24146;DHT22;12308;50.948;4.706;2023-09-08T04:02:50;18.60;99.90
24146;DHT22;12308;50.948;4.706;2023-09-08T04:05:17;18.70;99.90
24146;DHT22;12308;50.948;4.706;2023-09-08T04:07:44;18.70;99.90
24146;DHT22;12308;50.948;4.706;2023-09-08T04:10:10;18.70;99.90
24146;DHT22;12308;50.948;4.706;2023-09-08T04:12:35;18.70;99.90
24146;DHT22;12308;50.948;4.706;2023-09-08T04:15:01;18.60;99.90
24146;DHT22;12308;50.948;4.706;2023-09-08T04:17:27;18.60;99.90
24146;DHT22;12308;50.948;4.706;2023-09-08T04:19:52;18.60;99.90
24146;DHT22;12308;50.948;4.706;2023-09-08T04:22:18;18.70;99.90
24146;DHT22;12308;50.948;4.706;2023-09-08T04:24:43;18.60;99.90
24146;DHT22;12308;50.948;4.706;2023-09-08T04:27:09;18.50;99.90
24146;DHT22;12308;50.948;4.706;2023-09-08T04:29:36;18.50;99.90
24146;DHT22;12308;50.948;4.706;2023-09-08T04:32:02;18.50;99.90
24146;DHT22;12308;50.948;4.706;2023-09-08T04:34:36;18.50;99.90
24146;DHT22;12308;50.948;4.706;2023-09-08T04:37:02;18.50;99.90
24146;DHT22;12308;50.948;4.706;2023-09-08T04:39:28;18.50;99.90
24146;DHT22;12308;50.948;4.706;2023-09-08T04:41:54;18.50;99.90
24146;DHT22;12308;50.948;4.706;2023-09-08T04:44:20;18.40;99.90
24146;DHT22;12308;50.948;4.706;2023-09-08T04:46:45;18.40;99.90
24146;DHT22;12308;50.948;4.706;2023-09-08T04:49:11;18.40;99.90
24146;DHT22;12308;50.948;4.706;2023-09-08T04:51:37;18.50;99.90
24146;DHT22;12308;50.948;4.706;2023-09-08T04:54:02;18.50;99.90
24146;DHT22;12308;50.948;4.706;2023-09-08T04:56:28;18.40;99.90
24146;DHT22;12308;50.948;4.706;2023-09-08T04:58:54;18.40;99.90
24146;DHT22;12308;50.948;4.706;2023-09-08T05:01:20;18.40;99.90
24146;DHT22;12308;50.948;4.706;2023-09-08T05:03:46;18.40;99.90
24146;DHT22;12308;50.948;4.706;2023-09-08T05:06:12;18.40;99.90
24146;DHT22;12308;50.948;4.706;2023-09-08T05:08:39;18.30;99.90
24146;DHT22;12308;50.948;4.706;2023-09-08T05:11:05;18.30;99.90
24146;DHT22;12308;50.948;4.706;2023-09-08T05:13:30;18.30;99.90
24146;DHT22;12308;50.948;4.706;2023-09-08T05:15:56;18.30;99.90
24146;DHT22;12308;50.948;4.706;2023-09-08T05:18:29;18.30;99.90
24146;DHT22;12308;50.948;4.706;2023-09-08T05:20:54;18.30;99.90
24146;DHT22;12308;50.948;4.706;2023-09-08T05:23:20;18.40;99.90
24146;DHT22;12308;50.948;4.706;2023-09-08T05:25:45;18.40;99.90
24146;DHT22;12308;50.948;4.706;2023-09-08T05:28:11;18.40;99.90
24146;DHT22;12308;50.948;4.706;2023-09-08T05:30:37;18.40;99.90
24146;DHT22;12308;50.948;4.706;2023-09-08T05:33:02;18.40;99.90
24146;DHT22;12308;50.948;4.706;2023-09-08T05:35:28;18.50;99.90
24146;DHT22;12308;50.948;4.706;2023-09-08T05:37:54;18.50;99.90
24146;DHT22;12308;50.948;4.706;2023-09-08T05:40:19;18.60;99.90
24146;DHT22;12308;50.948;4.706;2023-09-08T05:42:49;18.70;99.90
24146;DHT22;12308;50.948;4.706;2023-09-08T05:45:15;18.70;99.90
24146;DHT22;12308;50.948;4.706;2023-09-08T05:47:40;18.70;99.90
24146;DHT22;12308;50.948;4.706;2023-09-08T05:50:06;18.60;99.90
24146;DHT22;12308;50.948;4.706;2023-09-08T05:52:32;18.70;99.90
24146;DHT22;12308;50.948;4.706;2023-09-08T05:54:58;18.80;99.90
24146;DHT22;12308;50.948;4.706;2023-09-08T05:57:24;18.90;99.90
24146;DHT22;12308;50.948;4.706;2023-09-08T05:59:50;18.90;99.90
24146;DHT22;12308;50.948;4.706;2023-09-08T06:02:16;19.00;99.90
24146;DHT22;12308;50.948;4.706;2023-09-08T06:04:41;19.00;99.90
24146;DHT22;12308;50.948;4.706;2023-09-08T06:07:07;19.10;99.90
24146;DHT22;12308;50.948;4.706;2023-09-08T06:09:33;19.10;99.90
24146;DHT22;12308;50.948;4.706;2023-09-08T06:11:58;19.30;99.90
24146;DHT22;12308;50.948;4.706;2023-09-08T06:14:24;19.40;99.90
24146;DHT22;12308;50.948;4.706;2023-09-08T06:16:50;19.50;99.90
24146;DHT22;12308;50.948;4.706;2023-09-08T06:19:15;19.50;99.90
24146;DHT22;12308;50.948;4.706;2023-09-08T06:21:41;19.50;99.90
24146;DHT22;12308;50.948;4.706;2023-09-08T06:24:07;19.50;99.90
24146;DHT22;12308;50.948;4.706;2023-09-08T06:26:33;19.60;99.90
24146;DHT22;12308;50.948;4.706;2023-09-08T06:28:58;19.70;99.90
24146;DHT22;12308;50.948;4.706;2023-09-08T06:31:24;19.80;99.90
24146;DHT22;12308;50.948;4.706;2023-09-08T06:33:50;19.80;99.90
24146;DHT22;12308;50.948;4.706;2023-09-08T06:36:18;19.90;99.90
24146;DHT22;12308;50.948;4.706;2023-09-08T06:38:44;19.90;99.90
24146;DHT22;12308;50.948;4.706;2023-09-08T06:41:11;20.10;99.90
24146;DHT22;12308;50.948;4.706;2023-09-08T06:43:37;20.10;99.90
24146;DHT22;12308;50.948;4.706;2023-09-08T06:46:03;20.20;99.90
24146;DHT22;12308;50.948;4.706;2023-09-08T06:48:29;20.30;99.90
24146;DHT22;12308;50.948;4.706;2023-09-08T06:50:55;20.30;99.90
24146;DHT22;12308;50.948;4.706;2023-09-08T06:53:24;20.40;99.90
24146;DHT22;12308;50.948;4.706;2023-09-08T06:55:50;20.50;99.90
24146;DHT22;12308;50.948;4.706;2023-09-08T06:58:16;20.60;99.90
24146;DHT22;12308;50.948;4.706;2023-09-08T07:00:42;20.70;99.90
24146;DHT22;12308;50.948;4.706;2023-09-08T07:03:08;20.70;99.90
24146;DHT22;12308;50.948;4.706;2023-09-08T07:05:34;20.80;99.90
24146;DHT22;12308;50.948;4.706;2023-09-08T07:08:00;20.90;99.90
24146;DHT22;12308;50.948;4.706;2023-09-08T07:10:26;21.00;99.90
24146;DHT22;12308;50.948;4.706;2023-09-08T07:12:51;21.10;99.90
24146;DHT22;12308;50.948;4.706;2023-09-08T07:15:17;21.10;99.90
24146;DHT22;12308;50.948;4.706;2023-09-08T07:17:43;21.20;99.90
24146;DHT22;12308;50.948;4.706;2023-09-08T07:20:09;21.30;99.90
24146;DHT22;12308;50.948;4.706;2023-09-08T07:22:34;21.40;99.90
24146;DHT22;12308;50.948;4.706;2023-09-08T07:25:00;21.50;99.90
24146;DHT22;12308;50.948;4.706;2023-09-08T07:27:26;21.50;99.90
24146;DHT22;12308;50.948;4.706;2023-09-08T07:29:52;21.70;99.90
24146;DHT22;12308;50.948;4.706;2023-09-08T07:32:18;21.80;99.90
24146;DHT22;12308;50.948;4.706;2023-09-08T07:34:44;21.80;99.90
24146;DHT22;12308;50.948;4.706;2023-09-08T07:37:10;21.90;99.90
24146;DHT22;12308;50.948;4.706;2023-09-08T07:39:35;22.00;99.90
24146;DHT22;12308;50.948;4.706;2023-09-08T07:42:02;22.10;99.90
24146;DHT22;12308;50.948;4.706;2023-09-08T07:44:27;22.20;99.90
24146;DHT22;12308;50.948;4.706;2023-09-08T07:46:54;22.20;99.90
24146;DHT22;12308;50.948;4.706;2023-09-08T07:49:22;22.40;99.90
24146;DHT22;12308;50.948;4.706;2023-09-08T07:51:48;22.40;99.90
24146;DHT22;12308;50.948;4.706;2023-09-08T07:54:14;22.50;99.90
24146;DHT22;12308;50.948;4.706;2023-09-08T07:56:40;22.60;99.90
24146;DHT22;12308;50.948;4.706;2023-09-08T07:59:08;22.70;99.90
24146;DHT22;12308;50.948;4.706;2023-09-08T08:01:34;22.80;99.90
24146;DHT22;12308;50.948;4.706;2023-09-08T08:04:00;22.80;99.90
24146;DHT22;12308;50.948;4.706;2023-09-08T08:06:28;22.80;99.90
24146;DHT22;12308;50.948;4.706;2023-09-08T08:08:54;22.90;99.90
24146;DHT22;12308;50.948;4.706;2023-09-08T08:11:20;23.00;99.90
24146;DHT22;12308;50.948;4.706;2023-09-08T08:13:46;23.10;99.90
24146;DHT22;12308;50.948;4.706;2023-09-08T08:16:12;23.30;99.90
24146;DHT22;12308;50.948;4.706;2023-09-08T08:18:37;23.50;99.90
24146;DHT22;12308;50.948;4.706;2023-09-08T08:21:03;23.50;99.90
24146;DHT22;12308;50.948;4.706;2023-09-08T08:23:30;23.60;99.90
24146;DHT22;12308;50.948;4.706;2023-09-08T08:25:56;23.60;99.90
24146;DHT22;12308;50.948;4.706;2023-09-08T08:28:22;23.60;99.90
24146;DHT22;12308;50.948;4.706;2023-09-08T08:30:50;23.70;99.90
24146;DHT22;12308;50.948;4.706;2023-09-08T08:33:15;23.70;99.90
24146;DHT22;12308;50.948;4.706;2023-09-08T08:35:41;23.80;99.90
24146;DHT22;12308;50.948;4.706;2023-09-08T08:38:07;23.80;99.90
24146;DHT22;12308;50.948;4.706;2023-09-08T08:40:32;23.90;99.90
24146;DHT22;12308;50.948;4.706;2023-09-08T08:42:59;24.10;99.90
24146;DHT22;12308;50.948;4.706;2023-09-08T08:45:26;24.10;99.90
24146;DHT22;12308;50.948;4.706;2023-09-08T08:47:53;24.20;99.90
24146;DHT22;12308;50.948;4.706;2023-09-08T08:50:19;24.20;99.90
24146;DHT22;12308;50.948;4.706;2023-09-08T08:52:46;24.20;99.90
24146;DHT22;12308;50.948;4.706;2023-09-08T08:55:12;24.10;99.90
24146;DHT22;12308;50.948;4.706;2023-09-08T08:57:40;24.10;99.90
24146;DHT22;12308;50.948;4.706;2023-09-08T09:00:08;24.20;99.90
24146;DHT22;12308;50.948;4.706;2023-09-08T09:02:37;24.50;99.90
24146;DHT22;12308;50.948;4.706;2023-09-08T09:05:05;25.00;99.90
24146;DHT22;12308;50.948;4.706;2023-09-08T09:07:32;25.10;99.90
24146;DHT22;12308;50.948;4.706;2023-09-08T09:09:57;25.10;99.90
24146;DHT22;12308;50.948;4.706;2023-09-08T09:12:24;24.90;99.90
24146;DHT22;12308;50.948;4.706;2023-09-08T09:14:53;24.90;99.90
24146;DHT22;12308;50.948;4.706;2023-09-08T09:17:19;24.90;99.90
24146;DHT22;12308;50.948;4.706;2023-09-08T09:19:44;25.00;99.90
24146;DHT22;12308;50.948;4.706;2023-09-08T09:22:10;25.10;99.90
24146;DHT22;12308;50.948;4.706;2023-09-08T09:24:38;25.00;99.90
24146;DHT22;12308;50.948;4.706;2023-09-08T09:27:06;25.10;99.90
24146;DHT22;12308;50.948;4.706;2023-09-08T09:29:33;25.10;99.90
24146;DHT22;12308;50.948;4.706;2023-09-08T09:32:04;25.30;99.90
24146;DHT22;12308;50.948;4.706;2023-09-08T09:34:31;25.30;99.90
24146;DHT22;12308;50.948;4.706;2023-09-08T09:36:57;25.30;99.90
24146;DHT22;12308;50.948;4.706;2023-09-08T09:39:24;25.20;99.90
24146;DHT22;12308;50.948;4.706;2023-09-08T09:41:53;25.20;99.90
24146;DHT22;12308;50.948;4.706;2023-09-08T09:44:19;25.30;99.90
24146;DHT22;12308;50.948;4.706;2023-09-08T09:46:46;25.50;99.90
24146;DHT22;12308;50.948;4.706;2023-09-08T09:49:13;25.50;99.90
24146;DHT22;12308;50.948;4.706;2023-09-08T09:51:49;25.60;99.90
24146;DHT22;12308;50.948;4.706;2023-09-08T09:54:16;25.70;99.90
24146;DHT22;12308;50.948;4.706;2023-09-08T09:56:43;25.80;99.90
24146;DHT22;12308;50.948;4.706;2023-09-08T09:59:10;25.90;99.90
24146;DHT22;12308;50.948;4.706;2023-09-08T10:01:37;25.80;99.90
24146;DHT22;12308;50.948;4.706;2023-09-08T10:04:04;25.80;99.90
24146;DHT22;12308;50.948;4.706;2023-09-08T10:06:35;26.00;99.90
24146;DHT22;12308;50.948;4.706;2023-09-08T10:09:03;26.10;99.90
24146;DHT22;12308;50.948;4.706;2023-09-08T10:11:34;26.30;99.90
24146;DHT22;12308;50.948;4.706;2023-09-08T10:14:04;26.60;99.90
24146;DHT22;12308;50.948;4.706;2023-09-08T10:16:35;26.70;99.90
24146;DHT22;12308;50.948;4.706;2023-09-08T10:19:09;26.80;99.90
24146;DHT22;12308;50.948;4.706;2023-09-08T10:21:39;27.00;99.90
24146;DHT22;12308;50.948;4.706;2023-09-08T10:24:15;27.00;99.90
24146;DHT22;12308;50.948;4.706;2023-09-08T10:26:46;27.00;99.90
24146;DHT22;12308;50.948;4.706;2023-09-08T10:29:17;27.00;99.90
24146;DHT22;12308;50.948;4.706;2023-09-08T10:31:44;27.00;99.90
24146;DHT22;12308;50.948;4.706;2023-09-08T10:34:11;27.00;99.90
24146;DHT22;12308;50.948;4.706;2023-09-08T10:36:37;27.00;99.90
24146;DHT22;12308;50.948;4.706;2023-09-08T10:39:35;26.90;99.90
24146;DHT22;12308;50.948;4.706;2023-09-08T10:47:12;26.80;99.90
24146;DHT22;12308;50.948;4.706;2023-09-08T10:49:38;26.90;99.90
24146;DHT22;12308;50.948;4.706;2023-09-08T10:52:14;27.00;99.90
24146;DHT22;12308;50.948;4.706;2023-09-08T10:54:47;27.00;99.90
24146;DHT22;12308;50.948;4.706;2023-09-08T10:57:14;27.10;99.90
24146;DHT22;12308;50.948;4.706;2023-09-08T10:59:45;27.20;99.90
24146;DHT22;12308;50.948;4.706;2023-09-08T11:02:35;27.30;99.90
24146;DHT22;12308;50.948;4.706;2023-09-08T11:05:11;27.30;99.90
24146;DHT22;12308;50.948;4.706;2023-09-08T11:07:39;27.50;99.90
24146;DHT22;12308;50.948;4.706;2023-09-08T11:10:06;27.60;99.90
24146;DHT22;12308;50.948;4.706;2023-09-08T11:12:33;27.70;99.90
24146;DHT22;12308;50.948;4.706;2023-09-08T11:15:02;27.70;99.90
24146;DHT22;12308;50.948;4.706;2023-09-08T11:17:31;27.80;99.90
24146;DHT22;12308;50.948;4.706;2023-09-08T11:19:57;28.00;99.90
24146;DHT22;12308;50.948;4.706;2023-09-08T11:22:24;28.10;99.90
24146;DHT22;12308;50.948;4.706;2023-09-08T11:24:52;28.00;99.90
24146;DHT22;12308;50.948;4.706;2023-09-08T11:27:18;28.10;99.90
24146;DHT22;12308;50.948;4.706;2023-09-08T11:29:44;28.20;99.90
24146;DHT22;12308;50.948;4.706;2023-09-08T11:32:11;28.50;99.90
24146;DHT22;12308;50.948;4.706;2023-09-08T11:34:37;28.40;99.90
24146;DHT22;12308;50.948;4.706;2023-09-08T11:37:13;28.60;99.90
24146;DHT22;12308;50.948;4.706;2023-09-08T11:39:40;28.80;99.90
24146;DHT22;12308;50.948;4.706;2023-09-08T11:42:14;28.80;99.90
24146;DHT22;12308;50.948;4.706;2023-09-08T11:44:41;28.80;99.90
24146;DHT22;12308;50.948;4.706;2023-09-08T11:47:07;28.80;99.90
24146;DHT22;12308;50.948;4.706;2023-09-08T11:49:39;28.70;99.90
24146;DHT22;12308;50.948;4.706;2023-09-08T11:52:06;28.80;99.90
24146;DHT22;12308;50.948;4.706;2023-09-08T11:54:33;28.90;99.90
24146;DHT22;12308;50.948;4.706;2023-09-08T11:57:00;29.00;99.90
24146;DHT22;12308;50.948;4.706;2023-09-08T11:59:33;29.20;99.90
24146;DHT22;12308;50.948;4.706;2023-09-08T12:01:59;29.10;99.90
24146;DHT22;12308;50.948;4.706;2023-09-08T12:04:25;29.10;99.90
24146;DHT22;12308;50.948;4.706;2023-09-08T12:06:53;29.20;99.90
24146;DHT22;12308;50.948;4.706;2023-09-08T12:09:20;29.20;99.90
24146;DHT22;12308;50.948;4.706;2023-09-08T12:11:47;29.10;99.90
24146;DHT22;12308;50.948;4.706;2023-09-08T12:14:14;29.10;99.90
24146;DHT22;12308;50.948;4.706;2023-09-08T12:16:43;29.00;99.90
24146;DHT22;12308;50.948;4.706;2023-09-08T12:19:31;29.20;99.90
24146;DHT22;12308;50.948;4.706;2023-09-08T12:22:01;29.40;99.90
24146;DHT22;12308;50.948;4.706;2023-09-08T12:27:14;29.90;99.90
24146;DHT22;12308;50.948;4.706;2023-09-08T12:29:51;29.70;99.90
24146;DHT22;12308;50.948;4.706;2023-09-08T12:32:17;29.60;99.90
24146;DHT22;12308;50.948;4.706;2023-09-08T12:34:43;29.70;99.90
24146;DHT22;12308;50.948;4.706;2023-09-08T12:37:10;29.70;99.90
24146;DHT22;12308;50.948;4.706;2023-09-08T12:39:38;29.60;99.90
24146;DHT22;12308;50.948;4.706;2023-09-08T12:42:04;29.50;99.90
24146;DHT22;12308;50.948;4.706;2023-09-08T12:44:30;29.50;99.90
24146;DHT22;12308;50.948;4.706;2023-09-08T12:46:56;29.50;99.90
24146;DHT22;12308;50.948;4.706;2023-09-08T12:49:21;29.40;99.90
24146;DHT22;12308;50.948;4.706;2023-09-08T12:51:47;29.80;99.90
24146;DHT22;12308;50.948;4.706;2023-09-08T12:54:13;30.10;99.90
24146;DHT22;12308;50.948;4.706;2023-09-08T12:56:38;30.20;99.90
24146;DHT22;12308;50.948;4.706;2023-09-08T12:59:04;30.10;99.90
24146;DHT22;12308;50.948;4.706;2023-09-08T13:01:30;30.00;99.90
24146;DHT22;12308;50.948;4.706;2023-09-08T13:03:55;29.90;99.90
24146;DHT22;12308;50.948;4.706;2023-09-08T13:06:21;29.80;99.90
24146;DHT22;12308;50.948;4.706;2023-09-08T13:08:47;30.00;99.90
24146;DHT22;12308;50.948;4.706;2023-09-08T13:11:12;30.00;99.90
24146;DHT22;12308;50.948;4.706;2023-09-08T13:13:38;29.90;99.90
24146;DHT22;12308;50.948;4.706;2023-09-08T13:16:03;30.00;99.90
24146;DHT22;12308;50.948;4.706;2023-09-08T13:18:29;30.10;99.90
24146;DHT22;12308;50.948;4.706;2023-09-08T13:21:01;30.30;99.90
24146;DHT22;12308;50.948;4.706;2023-09-08T13:23:26;30.20;99.90
24146;DHT22;12308;50.948;4.706;2023-09-08T13:25:52;30.10;99.90
24146;DHT22;12308;50.948;4.706;2023-09-08T13:28:18;30.10;99.90
24146;DHT22;12308;50.948;4.706;2023-09-08T13:30:43;30.10;99.90
24146;DHT22;12308;50.948;4.706;2023-09-08T13:33:09;30.10;99.90
24146;DHT22;12308;50.948;4.706;2023-09-08T13:35:35;30.20;99.90
24146;DHT22;12308;50.948;4.706;2023-09-08T13:38:00;30.20;99.90
24146;DHT22;12308;50.948;4.706;2023-09-08T13:40:28;30.20;99.90
24146;DHT22;12308;50.948;4.706;2023-09-08T13:42:54;30.20;99.90
24146;DHT22;12308;50.948;4.706;2023-09-08T13:45:20;30.30;99.90
24146;DHT22;12308;50.948;4.706;2023-09-08T13:47:45;30.40;99.90
24146;DHT22;12308;50.948;4.706;2023-09-08T13:50:11;30.50;99.90
24146;DHT22;12308;50.948;4.706;2023-09-08T13:52:37;30.50;99.90
24146;DHT22;12308;50.948;4.706;2023-09-08T13:55:07;30.50;99.90
24146;DHT22;12308;50.948;4.706;2023-09-08T13:57:33;30.50;99.90
24146;DHT22;12308;50.948;4.706;2023-09-08T13:59:59;30.50;99.90
24146;DHT22;12308;50.948;4.706;2023-09-08T14:02:24;30.70;99.90
24146;DHT22;12308;50.948;4.706;2023-09-08T14:04:51;30.70;99.90
24146;DHT22;12308;50.948;4.706;2023-09-08T14:07:16;30.80;99.90
24146;DHT22;12308;50.948;4.706;2023-09-08T14:09:42;30.70;99.90
24146;DHT22;12308;50.948;4.706;2023-09-08T14:12:08;30.70;99.90
24146;DHT22;12308;50.948;4.706;2023-09-08T14:14:34;30.70;99.90
24146;DHT22;12308;50.948;4.706;2023-09-08T14:16:59;30.50;99.90
24146;DHT22;12308;50.948;4.706;2023-09-08T14:19:25;30.40;99.90
24146;DHT22;12308;50.948;4.706;2023-09-08T14:21:51;30.40;99.90
24146;DHT22;12308;50.948;4.706;2023-09-08T14:24:16;30.50;99.90
24146;DHT22;12308;50.948;4.706;2023-09-08T14:26:42;30.50;99.90
24146;DHT22;12308;50.948;4.706;2023-09-08T14:29:08;30.50;99.90
24146;DHT22;12308;50.948;4.706;2023-09-08T14:31:33;30.50;99.90
24146;DHT22;12308;50.948;4.706;2023-09-08T14:33:59;30.50;99.90
24146;DHT22;12308;50.948;4.706;2023-09-08T14:36:25;30.60;99.90
24146;DHT22;12308;50.948;4.706;2023-09-08T14:38:51;30.70;99.90
24146;DHT22;12308;50.948;4.706;2023-09-08T14:41:16;30.70;99.90
24146;DHT22;12308;50.948;4.706;2023-09-08T14:43:42;30.70;99.90
24146;DHT22;12308;50.948;4.706;2023-09-08T14:46:08;30.80;99.90
24146;DHT22;12308;50.948;4.706;2023-09-08T14:48:34;30.80;99.90
24146;DHT22;12308;50.948;4.706;2023-09-08T14:51:01;30.80;99.90
24146;DHT22;12308;50.948;4.706;2023-09-08T14:53:29;30.70;99.90
24146;DHT22;12308;50.948;4.706;2023-09-08T14:55:57;30.70;99.90
24146;DHT22;12308;50.948;4.706;2023-09-08T14:58:24;30.70;99.90
24146;DHT22;12308;50.948;4.706;2023-09-08T15:00:51;30.70;99.90
24146;DHT22;12308;50.948;4.706;2023-09-08T15:03:17;30.80;99.90
24146;DHT22;12308;50.948;4.706;2023-09-08T15:05:43;30.90;99.90
24146;DHT22;12308;50.948;4.706;2023-09-08T15:08:09;30.80;99.90
24146;DHT22;12308;50.948;4.706;2023-09-08T15:10:34;30.70;99.90
24146;DHT22;12308;50.948;4.706;2023-09-08T15:13:00;30.60;99.90
24146;DHT22;12308;50.948;4.706;2023-09-08T15:15:26;30.70;99.90
24146;DHT22;12308;50.948;4.706;2023-09-08T15:17:52;30.70;99.90
24146;DHT22;12308;50.948;4.706;2023-09-08T15:20:18;30.80;99.90
24146;DHT22;12308;50.948;4.706;2023-09-08T15:22:44;31.10;99.90
24146;DHT22;12308;50.948;4.706;2023-09-08T15:25:10;31.30;99.90
24146;DHT22;12308;50.948;4.706;2023-09-08T15:27:36;31.00;99.90
24146;DHT22;12308;50.948;4.706;2023-09-08T15:30:02;31.20;99.90
24146;DHT22;12308;50.948;4.706;2023-09-08T15:32:27;31.30;99.90
24146;DHT22;12308;50.948;4.706;2023-09-08T15:34:53;31.20;99.90
24146;DHT22;12308;50.948;4.706;2023-09-08T15:37:19;31.00;99.90